sensor_id;sensor_type;location;lat;lon;timestamp;P1;durP1;ratioP1;P2;durP2;ratioP2
4317;SDS011;2172;53.576;9.934;2023-07-13T00:00:24;7.53;;;4.60;;
4317;SDS011;2172;53.576;9.934;2023-07-13T00:02:52;7.83;;;4.27;;
4317;SDS011;2172;53.576;9.934;2023-07-13T00:05:20;6.23;;;3.97;;
4317;SDS011;2172;53.576;9.934;2023-07-13T00:07:47;7.67;;;5.00;;
4317;SDS011;2172;53.576;9.934;2023-07-13T00:10:15;5.20;;;4.53;;
4317;SDS011;2172;53.576;9.934;2023-07-13T00:12:43;4.90;;;4.40;;
4317;SDS011;2172;53.576;9.934;2023-07-13T00:15:15;9.73;;;4.83;;
4317;SDS011;2172;53.576;9.934;2023-07-13T00:17:47;5.17;;;4.70;;
4317;SDS011;2172;53.576;9.934;2023-07-13T00:20:15;9.00;;;5.47;;
4317;SDS011;2172;53.576;9.934;2023-07-13T00:22:43;4.70;;;4.20;;
4317;SDS011;2172;53.576;9.934;2023-07-13T00:25:11;6.77;;;4.53;;
4317;SDS011;2172;53.576;9.934;2023-07-13T00:27:38;6.63;;;4.93;;
4317;SDS011;2172;53.576;9.934;2023-07-13T00:30:07;7.60;;;5.00;;
4317;SDS011;2172;53.576;9.934;2023-07-13T00:32:37;6.93;;;4.87;;
4317;SDS011;2172;53.576;9.934;2023-07-13T00:35:05;7.80;;;5.40;;
4317;SDS011;2172;53.576;9.934;2023-07-13T00:37:34;7.10;;;5.73;;
4317;SDS011;2172;53.576;9.934;2023-07-13T00:40:02;8.67;;;5.80;;
4317;SDS011;2172;53.576;9.934;2023-07-13T00:42:30;6.43;;;5.70;;
4317;SDS011;2172;53.576;9.934;2023-07-13T00:45:02;6.87;;;6.13;;
4317;SDS011;2172;53.576;9.934;2023-07-13T00:47:32;11.30;;;6.90;;
4317;SDS011;2172;53.576;9.934;2023-07-13T00:50:01;8.40;;;7.50;;
4317;SDS011;2172;53.576;9.934;2023-07-13T00:52:30;7.50;;;6.70;;
4317;SDS011;2172;53.576;9.934;2023-07-13T00:54:59;8.90;;;6.13;;
4317;SDS011;2172;53.576;9.934;2023-07-13T00:57:26;6.60;;;5.93;;
4317;SDS011;2172;53.576;9.934;2023-07-13T00:59:55;7.10;;;6.40;;
4317;SDS011;2172;53.576;9.934;2023-07-13T01:02:25;8.27;;;5.57;;
4317;SDS011;2172;53.576;9.934;2023-07-13T01:04:55;7.67;;;6.87;;
4317;SDS011;2172;53.576;9.934;2023-07-13T01:07:25;7.53;;;6.73;;
4317;SDS011;2172;53.576;9.934;2023-07-13T01:09:55;8.10;;;6.00;;
4317;SDS011;2172;53.576;9.934;2023-07-13T01:12:22;7.83;;;6.50;;
4317;SDS011;2172;53.576;9.934;2023-07-13T01:14:56;8.13;;;6.67;;
4317;SDS011;2172;53.576;9.934;2023-07-13T01:17:25;10.53;;;6.97;;
4317;SDS011;2172;53.576;9.934;2023-07-13T01:19:53;7.50;;;6.30;;
4317;SDS011;2172;53.576;9.934;2023-07-13T01:22:23;9.43;;;6.83;;
4317;SDS011;2172;53.576;9.934;2023-07-13T01:24:52;8.27;;;7.03;;
4317;SDS011;2172;53.576;9.934;2023-07-13T01:27:21;9.37;;;6.90;;
4317;SDS011;2172;53.576;9.934;2023-07-13T01:29:50;10.00;;;8.10;;
4317;SDS011;2172;53.576;9.934;2023-07-13T01:32:19;8.40;;;7.53;;
4317;SDS011;2172;53.576;9.934;2023-07-13T01:34:49;10.37;;;7.37;;
4317;SDS011;2172;53.576;9.934;2023-07-13T01:37:19;7.63;;;6.93;;
4317;SDS011;2172;53.576;9.934;2023-07-13T01:39:48;9.57;;;7.80;;
4317;SDS011;2172;53.576;9.934;2023-07-13T01:42:17;8.60;;;7.80;;
4317;SDS011;2172;53.576;9.934;2023-07-13T01:44:47;8.47;;;7.17;;
4317;SDS011;2172;53.576;9.934;2023-07-13T01:47:15;8.17;;;7.37;;
4317;SDS011;2172;53.576;9.934;2023-07-13T01:49:42;9.23;;;8.30;;
4317;SDS011;2172;53.576;9.934;2023-07-13T01:52:11;9.53;;;8.00;;
4317;SDS011;2172;53.576;9.934;2023-07-13T01:54:39;11.63;;;9.10;;
4317;SDS011;2172;53.576;9.934;2023-07-13T01:57:09;10.90;;;8.47;;
4317;SDS011;2172;53.576;9.934;2023-07-13T01:59:37;10.90;;;8.37;;
4317;SDS011;2172;53.576;9.934;2023-07-13T02:02:05;11.03;;;8.60;;
4317;SDS011;2172;53.576;9.934;2023-07-13T02:04:33;9.60;;;7.70;;
4317;SDS011;2172;53.576;9.934;2023-07-13T02:07:00;8.70;;;7.90;;
4317;SDS011;2172;53.576;9.934;2023-07-13T02:09:28;11.07;;;8.40;;
4317;SDS011;2172;53.576;9.934;2023-07-13T02:11:56;10.03;;;8.67;;
4317;SDS011;2172;53.576;9.934;2023-07-13T02:14:31;9.77;;;8.77;;
4317;SDS011;2172;53.576;9.934;2023-07-13T02:16:59;8.90;;;8.07;;
4317;SDS011;2172;53.576;9.934;2023-07-13T02:19:27;9.90;;;8.90;;
4317;SDS011;2172;53.576;9.934;2023-07-13T02:21:54;9.60;;;8.20;;
4317;SDS011;2172;53.576;9.934;2023-07-13T02:24:22;10.83;;;9.83;;
4317;SDS011;2172;53.576;9.934;2023-07-13T02:26:49;11.33;;;9.60;;
4317;SDS011;2172;53.576;9.934;2023-07-13T02:29:17;9.93;;;9.00;;
4317;SDS011;2172;53.576;9.934;2023-07-13T02:31:46;10.43;;;9.00;;
4317;SDS011;2172;53.576;9.934;2023-07-13T02:34:14;9.23;;;8.33;;
4317;SDS011;2172;53.576;9.934;2023-07-13T02:36:41;9.97;;;8.93;;
4317;SDS011;2172;53.576;9.934;2023-07-13T02:39:09;9.90;;;9.00;;
4317;SDS011;2172;53.576;9.934;2023-07-13T02:41:41;9.37;;;8.47;;
4317;SDS011;2172;53.576;9.934;2023-07-13T02:44:09;9.90;;;9.00;;
4317;SDS011;2172;53.576;9.934;2023-07-13T02:46:39;11.20;;;9.53;;
4317;SDS011;2172;53.576;9.934;2023-07-13T02:49:08;9.73;;;8.73;;
4317;SDS011;2172;53.576;9.934;2023-07-13T02:51:36;10.60;;;8.30;;
4317;SDS011;2172;53.576;9.934;2023-07-13T02:54:03;9.93;;;9.03;;
4317;SDS011;2172;53.576;9.934;2023-07-13T02:56:33;9.27;;;8.33;;
4317;SDS011;2172;53.576;9.934;2023-07-13T02:59:01;12.77;;;9.20;;
4317;SDS011;2172;53.576;9.934;2023-07-13T03:01:29;10.33;;;8.80;;
4317;SDS011;2172;53.576;9.934;2023-07-13T03:04:01;11.70;;;9.40;;
4317;SDS011;2172;53.576;9.934;2023-07-13T03:06:33;10.90;;;9.37;;
4317;SDS011;2172;53.576;9.934;2023-07-13T03:09:02;11.87;;;9.40;;
4317;SDS011;2172;53.576;9.934;2023-07-13T03:11:31;9.97;;;8.97;;
4317;SDS011;2172;53.576;9.934;2023-07-13T03:14:06;10.80;;;9.33;;
4317;SDS011;2172;53.576;9.934;2023-07-13T03:16:36;11.53;;;9.37;;
4317;SDS011;2172;53.576;9.934;2023-07-13T03:19:04;11.87;;;9.70;;
4317;SDS011;2172;53.576;9.934;2023-07-13T03:21:33;9.97;;;8.97;;
4317;SDS011;2172;53.576;9.934;2023-07-13T03:24:01;12.93;;;9.33;;
4317;SDS011;2172;53.576;9.934;2023-07-13T03:26:28;10.63;;;9.43;;
4317;SDS011;2172;53.576;9.934;2023-07-13T03:28:57;11.20;;;9.20;;
4317;SDS011;2172;53.576;9.934;2023-07-13T03:31:25;10.10;;;9.03;;
4317;SDS011;2172;53.576;9.934;2023-07-13T03:33:53;10.00;;;8.93;;
4317;SDS011;2172;53.576;9.934;2023-07-13T03:36:23;11.60;;;8.50;;
4317;SDS011;2172;53.576;9.934;2023-07-13T03:38:56;10.70;;;9.10;;
4317;SDS011;2172;53.576;9.934;2023-07-13T03:41:32;11.33;;;8.87;;
4317;SDS011;2172;53.576;9.934;2023-07-13T03:43:59;11.27;;;8.57;;
4317;SDS011;2172;53.576;9.934;2023-07-13T03:46:27;9.60;;;7.93;;
4317;SDS011;2172;53.576;9.934;2023-07-13T03:48:55;9.97;;;8.20;;
4317;SDS011;2172;53.576;9.934;2023-07-13T03:51:23;8.07;;;6.90;;
4317;SDS011;2172;53.576;9.934;2023-07-13T03:53:51;11.73;;;7.47;;
4317;SDS011;2172;53.576;9.934;2023-07-13T03:56:20;11.00;;;7.13;;
4317;SDS011;2172;53.576;9.934;2023-07-13T03:58:49;9.70;;;6.93;;
4317;SDS011;2172;53.576;9.934;2023-07-13T04:01:20;13.17;;;7.80;;
4317;SDS011;2172;53.576;9.934;2023-07-13T04:03:50;8.63;;;6.60;;
4317;SDS011;2172;53.576;9.934;2023-07-13T04:06:22;6.83;;;6.23;;
4317;SDS011;2172;53.576;9.934;2023-07-13T04:08:52;8.67;;;6.10;;
4317;SDS011;2172;53.576;9.934;2023-07-13T04:11:22;7.83;;;6.80;;
4317;SDS011;2172;53.576;9.934;2023-07-13T04:13:51;8.90;;;6.33;;
4317;SDS011;2172;53.576;9.934;2023-07-13T04:16:19;7.37;;;6.57;;
4317;SDS011;2172;53.576;9.934;2023-07-13T04:18:47;8.27;;;7.00;;
4317;SDS011;2172;53.576;9.934;2023-07-13T04:21:15;8.63;;;5.73;;
4317;SDS011;2172;53.576;9.934;2023-07-13T04:23:43;14.50;;;6.47;;
4317;SDS011;2172;53.576;9.934;2023-07-13T04:26:11;7.13;;;6.43;;
4317;SDS011;2172;53.576;9.934;2023-07-13T04:28:39;7.40;;;6.33;;
4317;SDS011;2172;53.576;9.934;2023-07-13T04:31:07;7.50;;;6.80;;
4317;SDS011;2172;53.576;9.934;2023-07-13T04:33:34;11.20;;;6.80;;
4317;SDS011;2172;53.576;9.934;2023-07-13T04:36:02;8.20;;;6.70;;
4317;SDS011;2172;53.576;9.934;2023-07-13T04:38:30;9.87;;;7.00;;
4317;SDS011;2172;53.576;9.934;2023-07-13T04:40:59;17.20;;;7.87;;
4317;SDS011;2172;53.576;9.934;2023-07-13T04:43:29;17.80;;;11.80;;
4317;SDS011;2172;53.576;9.934;2023-07-13T04:46:02;10.70;;;7.10;;
4317;SDS011;2172;53.576;9.934;2023-07-13T04:48:30;9.87;;;7.80;;
4317;SDS011;2172;53.576;9.934;2023-07-13T04:50:58;10.40;;;8.30;;
4317;SDS011;2172;53.576;9.934;2023-07-13T04:53:27;9.70;;;7.73;;
4317;SDS011;2172;53.576;9.934;2023-07-13T04:55:54;10.30;;;7.93;;
4317;SDS011;2172;53.576;9.934;2023-07-13T04:58:24;10.63;;;6.77;;
4317;SDS011;2172;53.576;9.934;2023-07-13T05:00:52;8.47;;;6.60;;
4317;SDS011;2172;53.576;9.934;2023-07-13T05:03:21;7.97;;;7.00;;
4317;SDS011;2172;53.576;9.934;2023-07-13T05:05:55;12.07;;;7.70;;
4317;SDS011;2172;53.576;9.934;2023-07-13T05:08:23;7.60;;;6.50;;
4317;SDS011;2172;53.576;9.934;2023-07-13T05:10:50;11.40;;;6.97;;
4317;SDS011;2172;53.576;9.934;2023-07-13T05:13:19;11.47;;;7.17;;
4317;SDS011;2172;53.576;9.934;2023-07-13T05:15:47;11.20;;;7.33;;
4317;SDS011;2172;53.576;9.934;2023-07-13T05:18:23;14.93;;;8.17;;
4317;SDS011;2172;53.576;9.934;2023-07-13T05:20:57;12.67;;;7.00;;
4317;SDS011;2172;53.576;9.934;2023-07-13T05:23:25;12.80;;;7.53;;
4317;SDS011;2172;53.576;9.934;2023-07-13T05:25:53;10.83;;;7.00;;
4317;SDS011;2172;53.576;9.934;2023-07-13T05:28:21;9.10;;;6.07;;
4317;SDS011;2172;53.576;9.934;2023-07-13T05:30:48;13.33;;;8.20;;
4317;SDS011;2172;53.576;9.934;2023-07-13T05:33:17;14.90;;;7.20;;
4317;SDS011;2172;53.576;9.934;2023-07-13T05:35:46;13.03;;;7.50;;
4317;SDS011;2172;53.576;9.934;2023-07-13T05:38:13;11.23;;;7.80;;
4317;SDS011;2172;53.576;9.934;2023-07-13T05:40:42;14.60;;;7.43;;
4317;SDS011;2172;53.576;9.934;2023-07-13T05:43:09;8.73;;;7.03;;
4317;SDS011;2172;53.576;9.934;2023-07-13T05:45:37;12.37;;;7.80;;
4317;SDS011;2172;53.576;9.934;2023-07-13T05:48:05;10.50;;;7.17;;
4317;SDS011;2172;53.576;9.934;2023-07-13T05:50:32;14.40;;;8.00;;
4317;SDS011;2172;53.576;9.934;2023-07-13T05:53:01;9.90;;;6.97;;
4317;SDS011;2172;53.576;9.934;2023-07-13T05:55:29;9.13;;;7.60;;
4317;SDS011;2172;53.576;9.934;2023-07-13T05:57:56;15.87;;;8.27;;
4317;SDS011;2172;53.576;9.934;2023-07-13T06:00:24;13.60;;;8.37;;
4317;SDS011;2172;53.576;9.934;2023-07-13T06:02:51;14.53;;;8.00;;
4317;SDS011;2172;53.576;9.934;2023-07-13T06:05:19;11.33;;;7.43;;
4317;SDS011;2172;53.576;9.934;2023-07-13T06:07:47;12.03;;;7.27;;
4317;SDS011;2172;53.576;9.934;2023-07-13T06:10:16;18.00;;;8.20;;
4317;SDS011;2172;53.576;9.934;2023-07-13T06:12:43;19.03;;;7.20;;
4317;SDS011;2172;53.576;9.934;2023-07-13T06:15:11;16.37;;;8.57;;
4317;SDS011;2172;53.576;9.934;2023-07-13T06:17:39;15.73;;;7.40;;
4317;SDS011;2172;53.576;9.934;2023-07-13T06:20:07;10.27;;;7.13;;
4317;SDS011;2172;53.576;9.934;2023-07-13T06:22:34;11.53;;;7.30;;
4317;SDS011;2172;53.576;9.934;2023-07-13T06:25:02;12.97;;;7.83;;
4317;SDS011;2172;53.576;9.934;2023-07-13T06:27:31;16.03;;;8.20;;
4317;SDS011;2172;53.576;9.934;2023-07-13T06:29:59;16.43;;;6.97;;
4317;SDS011;2172;53.576;9.934;2023-07-13T06:32:26;11.33;;;7.60;;
4317;SDS011;2172;53.576;9.934;2023-07-13T06:34:54;15.33;;;7.33;;
4317;SDS011;2172;53.576;9.934;2023-07-13T06:37:21;13.47;;;6.47;;
4317;SDS011;2172;53.576;9.934;2023-07-13T06:39:49;14.83;;;6.77;;
4317;SDS011;2172;53.576;9.934;2023-07-13T06:42:17;14.27;;;6.97;;
4317;SDS011;2172;53.576;9.934;2023-07-13T06:44:45;11.10;;;6.70;;
4317;SDS011;2172;53.576;9.934;2023-07-13T06:47:13;10.60;;;5.80;;
4317;SDS011;2172;53.576;9.934;2023-07-13T06:49:40;14.23;;;7.23;;
4317;SDS011;2172;53.576;9.934;2023-07-13T06:52:08;13.80;;;6.90;;
4317;SDS011;2172;53.576;9.934;2023-07-13T06:54:35;17.60;;;6.90;;
4317;SDS011;2172;53.576;9.934;2023-07-13T06:57:03;12.03;;;6.17;;
4317;SDS011;2172;53.576;9.934;2023-07-13T06:59:31;12.00;;;6.43;;
4317;SDS011;2172;53.576;9.934;2023-07-13T07:02:00;10.43;;;6.10;;
4317;SDS011;2172;53.576;9.934;2023-07-13T07:04:28;11.03;;;6.10;;
4317;SDS011;2172;53.576;9.934;2023-07-13T07:06:57;12.90;;;6.03;;
4317;SDS011;2172;53.576;9.934;2023-07-13T07:09:24;13.97;;;5.80;;
4317;SDS011;2172;53.576;9.934;2023-07-13T07:11:52;11.60;;;6.30;;
4317;SDS011;2172;53.576;9.934;2023-07-13T07:14:19;12.90;;;5.23;;
4317;SDS011;2172;53.576;9.934;2023-07-13T07:16:46;10.60;;;5.27;;
4317;SDS011;2172;53.576;9.934;2023-07-13T07:19:15;13.50;;;6.20;;
4317;SDS011;2172;53.576;9.934;2023-07-13T07:21:43;8.37;;;5.17;;
4317;SDS011;2172;53.576;9.934;2023-07-13T07:24:11;8.20;;;5.10;;
4317;SDS011;2172;53.576;9.934;2023-07-13T07:26:38;14.00;;;6.37;;
4317;SDS011;2172;53.576;9.934;2023-07-13T07:29:24;10.83;;;5.27;;
4317;SDS011;2172;53.576;9.934;2023-07-13T07:31:53;10.70;;;4.57;;
4317;SDS011;2172;53.576;9.934;2023-07-13T07:34:22;10.03;;;5.23;;
4317;SDS011;2172;53.576;9.934;2023-07-13T07:36:49;14.03;;;5.33;;
4317;SDS011;2172;53.576;9.934;2023-07-13T07:39:17;20.20;;;6.60;;
4317;SDS011;2172;53.576;9.934;2023-07-13T07:41:44;13.03;;;5.97;;
4317;SDS011;2172;53.576;9.934;2023-07-13T07:44:12;12.90;;;5.33;;
4317;SDS011;2172;53.576;9.934;2023-07-13T07:46:39;9.50;;;5.10;;
4317;SDS011;2172;53.576;9.934;2023-07-13T07:49:07;15.53;;;6.30;;
4317;SDS011;2172;53.576;9.934;2023-07-13T07:51:36;14.17;;;5.27;;
4317;SDS011;2172;53.576;9.934;2023-07-13T07:54:03;11.07;;;5.30;;
4317;SDS011;2172;53.576;9.934;2023-07-13T07:56:31;10.00;;;4.70;;
4317;SDS011;2172;53.576;9.934;2023-07-13T07:58:59;15.33;;;5.33;;
4317;SDS011;2172;53.576;9.934;2023-07-13T08:01:27;10.57;;;4.37;;
4317;SDS011;2172;53.576;9.934;2023-07-13T08:03:54;8.03;;;5.17;;
4317;SDS011;2172;53.576;9.934;2023-07-13T08:06:22;11.20;;;5.43;;
4317;SDS011;2172;53.576;9.934;2023-07-13T08:08:51;10.90;;;5.10;;
4317;SDS011;2172;53.576;9.934;2023-07-13T08:11:20;11.43;;;5.30;;
4317;SDS011;2172;53.576;9.934;2023-07-13T08:13:49;8.63;;;3.80;;
4317;SDS011;2172;53.576;9.934;2023-07-13T08:16:17;8.40;;;4.60;;
4317;SDS011;2172;53.576;9.934;2023-07-13T08:18:45;10.00;;;5.23;;
4317;SDS011;2172;53.576;9.934;2023-07-13T08:21:12;9.27;;;4.50;;
4317;SDS011;2172;53.576;9.934;2023-07-13T08:23:40;9.83;;;4.67;;
4317;SDS011;2172;53.576;9.934;2023-07-13T08:26:08;15.60;;;4.20;;
4317;SDS011;2172;53.576;9.934;2023-07-13T08:28:36;10.40;;;4.27;;
4317;SDS011;2172;53.576;9.934;2023-07-13T08:31:04;10.83;;;4.70;;
4317;SDS011;2172;53.576;9.934;2023-07-13T08:33:33;6.63;;;3.90;;
4317;SDS011;2172;53.576;9.934;2023-07-13T08:36:02;7.60;;;3.77;;
4317;SDS011;2172;53.576;9.934;2023-07-13T08:38:30;10.00;;;4.30;;
4317;SDS011;2172;53.576;9.934;2023-07-13T08:40:59;9.67;;;4.40;;
4317;SDS011;2172;53.576;9.934;2023-07-13T08:43:28;11.27;;;4.07;;
4317;SDS011;2172;53.576;9.934;2023-07-13T08:45:58;8.90;;;4.83;;
4317;SDS011;2172;53.576;9.934;2023-07-13T08:48:31;10.00;;;4.03;;
4317;SDS011;2172;53.576;9.934;2023-07-13T08:51:02;9.00;;;3.80;;
4317;SDS011;2172;53.576;9.934;2023-07-13T08:53:49;8.07;;;4.27;;
4317;SDS011;2172;53.576;9.934;2023-07-13T08:56:22;5.13;;;3.90;;
4317;SDS011;2172;53.576;9.934;2023-07-13T08:59:13;11.53;;;4.57;;
4317;SDS011;2172;53.576;9.934;2023-07-13T09:01:47;11.70;;;4.40;;
4317;SDS011;2172;53.576;9.934;2023-07-13T09:04:25;6.30;;;4.10;;
4317;SDS011;2172;53.576;9.934;2023-07-13T09:06:58;8.20;;;3.80;;
4317;SDS011;2172;53.576;9.934;2023-07-13T09:09:33;8.47;;;3.97;;
4317;SDS011;2172;53.576;9.934;2023-07-13T09:12:09;9.10;;;3.90;;
4317;SDS011;2172;53.576;9.934;2023-07-13T09:14:43;8.97;;;3.67;;
4317;SDS011;2172;53.576;9.934;2023-07-13T09:17:15;5.80;;;3.17;;
4317;SDS011;2172;53.576;9.934;2023-07-13T09:19:46;9.27;;;3.57;;
4317;SDS011;2172;53.576;9.934;2023-07-13T09:22:17;7.87;;;3.50;;
4317;SDS011;2172;53.576;9.934;2023-07-13T09:24:51;5.97;;;3.00;;
4317;SDS011;2172;53.576;9.934;2023-07-13T09:27:27;6.90;;;3.50;;
4317;SDS011;2172;53.576;9.934;2023-07-13T09:32:51;7.60;;;3.60;;
4317;SDS011;2172;53.576;9.934;2023-07-13T09:35:20;9.10;;;4.30;;
4317;SDS011;2172;53.576;9.934;2023-07-13T09:37:50;5.83;;;3.80;;
4317;SDS011;2172;53.576;9.934;2023-07-13T09:40:20;8.00;;;3.87;;
4317;SDS011;2172;53.576;9.934;2023-07-13T09:42:51;7.77;;;4.13;;
4317;SDS011;2172;53.576;9.934;2023-07-13T09:45:27;7.40;;;4.07;;
4317;SDS011;2172;53.576;9.934;2023-07-13T09:47:59;8.47;;;3.60;;
4317;SDS011;2172;53.576;9.934;2023-07-13T09:50:31;9.53;;;3.93;;
4317;SDS011;2172;53.576;9.934;2023-07-13T09:53:00;5.00;;;3.63;;
4317;SDS011;2172;53.576;9.934;2023-07-13T09:55:29;8.53;;;4.07;;
4317;SDS011;2172;53.576;9.934;2023-07-13T09:58:02;5.47;;;4.07;;
4317;SDS011;2172;53.576;9.934;2023-07-13T10:00:33;8.20;;;3.93;;
4317;SDS011;2172;53.576;9.934;2023-07-13T10:03:01;10.70;;;4.40;;
4317;SDS011;2172;53.576;9.934;2023-07-13T10:05:37;6.83;;;3.80;;
4317;SDS011;2172;53.576;9.934;2023-07-13T10:08:28;4.43;;;3.57;;
4317;SDS011;2172;53.576;9.934;2023-07-13T10:10:58;6.57;;;3.20;;
4317;SDS011;2172;53.576;9.934;2023-07-13T10:13:33;5.30;;;3.00;;
4317;SDS011;2172;53.576;9.934;2023-07-13T10:16:04;8.33;;;3.63;;
4317;SDS011;2172;53.576;9.934;2023-07-13T10:18:39;7.47;;;3.90;;
4317;SDS011;2172;53.576;9.934;2023-07-13T10:21:10;5.83;;;3.57;;
4317;SDS011;2172;53.576;9.934;2023-07-13T10:23:40;7.13;;;3.40;;
4317;SDS011;2172;53.576;9.934;2023-07-13T10:26:09;10.37;;;4.03;;
4317;SDS011;2172;53.576;9.934;2023-07-13T10:28:41;3.73;;;3.20;;
4317;SDS011;2172;53.576;9.934;2023-07-13T10:31:14;6.40;;;3.47;;
4317;SDS011;2172;53.576;9.934;2023-07-13T10:33:43;5.20;;;3.40;;
4317;SDS011;2172;53.576;9.934;2023-07-13T10:36:12;4.33;;;3.33;;
4317;SDS011;2172;53.576;9.934;2023-07-13T10:38:43;9.13;;;3.50;;
4317;SDS011;2172;53.576;9.934;2023-07-13T10:41:11;6.53;;;3.13;;
4317;SDS011;2172;53.576;9.934;2023-07-13T10:43:43;4.13;;;3.00;;
4317;SDS011;2172;53.576;9.934;2023-07-13T10:46:16;6.47;;;3.70;;
4317;SDS011;2172;53.576;9.934;2023-07-13T10:48:46;5.10;;;3.20;;
4317;SDS011;2172;53.576;9.934;2023-07-13T10:51:17;5.37;;;2.90;;
4317;SDS011;2172;53.576;9.934;2023-07-13T10:53:47;5.63;;;3.67;;
4317;SDS011;2172;53.576;9.934;2023-07-13T10:56:38;3.87;;;2.70;;
4317;SDS011;2172;53.576;9.934;2023-07-13T10:59:09;6.80;;;4.00;;
4317;SDS011;2172;53.576;9.934;2023-07-13T11:01:46;4.80;;;3.00;;
4317;SDS011;2172;53.576;9.934;2023-07-13T11:04:17;6.83;;;3.20;;
4317;SDS011;2172;53.576;9.934;2023-07-13T11:06:48;5.07;;;2.60;;
4317;SDS011;2172;53.576;9.934;2023-07-13T11:09:18;5.43;;;3.00;;
4317;SDS011;2172;53.576;9.934;2023-07-13T11:11:58;5.20;;;3.40;;
4317;SDS011;2172;53.576;9.934;2023-07-13T11:14:28;4.23;;;3.10;;
4317;SDS011;2172;53.576;9.934;2023-07-13T11:16:58;3.77;;;2.80;;
4317;SDS011;2172;53.576;9.934;2023-07-13T11:19:38;5.57;;;2.73;;
4317;SDS011;2172;53.576;9.934;2023-07-13T11:22:14;3.00;;;2.67;;
4317;SDS011;2172;53.576;9.934;2023-07-13T11:24:50;5.70;;;2.70;;
4317;SDS011;2172;53.576;9.934;2023-07-13T11:27:34;3.90;;;2.67;;
4317;SDS011;2172;53.576;9.934;2023-07-13T11:32:52;4.97;;;3.00;;
4317;SDS011;2172;53.576;9.934;2023-07-13T11:35:33;6.67;;;2.73;;
4317;SDS011;2172;53.576;9.934;2023-07-13T11:38:08;4.63;;;2.63;;
4317;SDS011;2172;53.576;9.934;2023-07-13T11:40:43;3.57;;;2.97;;
4317;SDS011;2172;53.576;9.934;2023-07-13T11:43:12;4.20;;;2.73;;
4317;SDS011;2172;53.576;9.934;2023-07-13T11:45:41;5.63;;;3.07;;
4317;SDS011;2172;53.576;9.934;2023-07-13T11:48:21;5.87;;;2.97;;
4317;SDS011;2172;53.576;9.934;2023-07-13T11:50:54;5.40;;;3.07;;
4317;SDS011;2172;53.576;9.934;2023-07-13T11:53:25;3.03;;;2.70;;
4317;SDS011;2172;53.576;9.934;2023-07-13T11:55:54;4.93;;;2.83;;
4317;SDS011;2172;53.576;9.934;2023-07-13T11:58:23;5.60;;;3.03;;
4317;SDS011;2172;53.576;9.934;2023-07-13T12:00:53;3.50;;;3.20;;
4317;SDS011;2172;53.576;9.934;2023-07-13T12:03:27;10.97;;;3.53;;
4317;SDS011;2172;53.576;9.934;2023-07-13T12:05:55;8.07;;;3.43;;
4317;SDS011;2172;53.576;9.934;2023-07-13T12:08:25;6.10;;;3.40;;
4317;SDS011;2172;53.576;9.934;2023-07-13T12:10:56;7.00;;;3.87;;
4317;SDS011;2172;53.576;9.934;2023-07-13T12:13:26;4.67;;;2.90;;
4317;SDS011;2172;53.576;9.934;2023-07-13T12:15:55;5.60;;;2.73;;
4317;SDS011;2172;53.576;9.934;2023-07-13T12:18:28;9.60;;;4.40;;
4317;SDS011;2172;53.576;9.934;2023-07-13T12:20:59;12.83;;;4.80;;
4317;SDS011;2172;53.576;9.934;2023-07-13T12:23:28;9.47;;;4.60;;
4317;SDS011;2172;53.576;9.934;2023-07-13T12:25:57;7.40;;;4.10;;
4317;SDS011;2172;53.576;9.934;2023-07-13T12:28:31;4.60;;;3.70;;
4317;SDS011;2172;53.576;9.934;2023-07-13T12:30:59;5.13;;;3.50;;
4317;SDS011;2172;53.576;9.934;2023-07-13T12:33:28;7.73;;;4.40;;
4317;SDS011;2172;53.576;9.934;2023-07-13T12:35:59;5.90;;;3.63;;
4317;SDS011;2172;53.576;9.934;2023-07-13T12:38:29;6.23;;;4.13;;
4317;SDS011;2172;53.576;9.934;2023-07-13T12:40:57;6.53;;;4.47;;
4317;SDS011;2172;53.576;9.934;2023-07-13T12:43:25;5.27;;;4.10;;
4317;SDS011;2172;53.576;9.934;2023-07-13T12:45:54;5.87;;;4.40;;
4317;SDS011;2172;53.576;9.934;2023-07-13T12:48:23;5.40;;;3.93;;
4317;SDS011;2172;53.576;9.934;2023-07-13T12:50:53;4.23;;;3.77;;
4317;SDS011;2172;53.576;9.934;2023-07-13T12:53:22;7.00;;;4.17;;
4317;SDS011;2172;53.576;9.934;2023-07-13T12:55:50;5.07;;;3.60;;
4317;SDS011;2172;53.576;9.934;2023-07-13T12:58:21;5.00;;;3.37;;
4317;SDS011;2172;53.576;9.934;2023-07-13T13:00:53;7.70;;;3.70;;
4317;SDS011;2172;53.576;9.934;2023-07-13T13:03:24;4.43;;;3.33;;
4317;SDS011;2172;53.576;9.934;2023-07-13T13:05:58;3.90;;;3.00;;
4317;SDS011;2172;53.576;9.934;2023-07-13T13:08:28;4.57;;;3.00;;
4317;SDS011;2172;53.576;9.934;2023-07-13T13:10:56;5.97;;;3.57;;
4317;SDS011;2172;53.576;9.934;2023-07-13T13:13:23;4.97;;;3.17;;
4317;SDS011;2172;53.576;9.934;2023-07-13T13:15:51;6.50;;;3.30;;
4317;SDS011;2172;53.576;9.934;2023-07-13T13:18:19;8.40;;;3.57;;
4317;SDS011;2172;53.576;9.934;2023-07-13T13:20:47;4.03;;;2.90;;
4317;SDS011;2172;53.576;9.934;2023-07-13T13:23:18;4.40;;;3.00;;
4317;SDS011;2172;53.576;9.934;2023-07-13T13:25:50;6.63;;;3.60;;
4317;SDS011;2172;53.576;9.934;2023-07-13T13:28:19;2.93;;;2.63;;
4317;SDS011;2172;53.576;9.934;2023-07-13T13:30:48;5.37;;;3.20;;
4317;SDS011;2172;53.576;9.934;2023-07-13T13:33:17;4.50;;;3.30;;
4317;SDS011;2172;53.576;9.934;2023-07-13T13:35:45;5.10;;;3.43;;
4317;SDS011;2172;53.576;9.934;2023-07-13T13:38:14;3.73;;;3.03;;
4317;SDS011;2172;53.576;9.934;2023-07-13T13:40:44;3.30;;;2.40;;
4317;SDS011;2172;53.576;9.934;2023-07-13T13:43:15;4.67;;;2.80;;
4317;SDS011;2172;53.576;9.934;2023-07-13T13:45:44;2.80;;;2.60;;
4317;SDS011;2172;53.576;9.934;2023-07-13T13:48:14;3.93;;;3.20;;
4317;SDS011;2172;53.576;9.934;2023-07-13T13:50:42;5.40;;;2.70;;
4317;SDS011;2172;53.576;9.934;2023-07-13T13:53:10;4.53;;;2.80;;
4317;SDS011;2172;53.576;9.934;2023-07-13T13:55:38;3.57;;;3.00;;
4317;SDS011;2172;53.576;9.934;2023-07-13T13:58:08;7.90;;;2.70;;
4317;SDS011;2172;53.576;9.934;2023-07-13T14:00:36;3.60;;;2.63;;
4317;SDS011;2172;53.576;9.934;2023-07-13T14:03:04;3.50;;;2.90;;
4317;SDS011;2172;53.576;9.934;2023-07-13T14:05:32;3.70;;;2.90;;
4317;SDS011;2172;53.576;9.934;2023-07-13T14:08:00;5.87;;;3.20;;
4317;SDS011;2172;53.576;9.934;2023-07-13T14:10:27;5.63;;;3.33;;
4317;SDS011;2172;53.576;9.934;2023-07-13T14:12:55;4.90;;;2.90;;
4317;SDS011;2172;53.576;9.934;2023-07-13T14:15:25;6.90;;;3.30;;
4317;SDS011;2172;53.576;9.934;2023-07-13T14:17:56;5.53;;;3.27;;
4317;SDS011;2172;53.576;9.934;2023-07-13T14:20:24;5.67;;;3.17;;
4317;SDS011;2172;53.576;9.934;2023-07-13T14:22:52;6.43;;;3.43;;
4317;SDS011;2172;53.576;9.934;2023-07-13T14:25:20;4.50;;;3.10;;
4317;SDS011;2172;53.576;9.934;2023-07-13T14:27:49;6.43;;;3.13;;
4317;SDS011;2172;53.576;9.934;2023-07-13T14:30:22;5.23;;;3.43;;
4317;SDS011;2172;53.576;9.934;2023-07-13T14:32:50;3.70;;;2.77;;
4317;SDS011;2172;53.576;9.934;2023-07-13T14:35:18;3.60;;;2.73;;
4317;SDS011;2172;53.576;9.934;2023-07-13T14:37:48;3.30;;;3.00;;
4317;SDS011;2172;53.576;9.934;2023-07-13T14:40:17;4.80;;;3.37;;
4317;SDS011;2172;53.576;9.934;2023-07-13T14:42:45;3.50;;;3.20;;
4317;SDS011;2172;53.576;9.934;2023-07-13T14:45:14;4.27;;;3.07;;
4317;SDS011;2172;53.576;9.934;2023-07-13T14:47:43;3.93;;;2.90;;
4317;SDS011;2172;53.576;9.934;2023-07-13T14:50:16;3.43;;;3.13;;
4317;SDS011;2172;53.576;9.934;2023-07-13T14:52:45;5.70;;;4.00;;
4317;SDS011;2172;53.576;9.934;2023-07-13T14:55:14;5.37;;;3.93;;
4317;SDS011;2172;53.576;9.934;2023-07-13T14:57:42;5.13;;;3.93;;
4317;SDS011;2172;53.576;9.934;2023-07-13T15:00:14;5.40;;;3.50;;
4317;SDS011;2172;53.576;9.934;2023-07-13T15:02:43;5.70;;;4.40;;
4317;SDS011;2172;53.576;9.934;2023-07-13T15:05:13;4.30;;;3.73;;
4317;SDS011;2172;53.576;9.934;2023-07-13T15:07:43;5.50;;;4.10;;
4317;SDS011;2172;53.576;9.934;2023-07-13T15:10:14;5.60;;;4.53;;
4317;SDS011;2172;53.576;9.934;2023-07-13T15:12:42;6.50;;;4.37;;
4317;SDS011;2172;53.576;9.934;2023-07-13T15:15:10;6.23;;;3.80;;
4317;SDS011;2172;53.576;9.934;2023-07-13T15:17:39;5.33;;;3.50;;
4317;SDS011;2172;53.576;9.934;2023-07-13T15:20:15;4.27;;;3.60;;
4317;SDS011;2172;53.576;9.934;2023-07-13T15:22:45;4.43;;;3.60;;
4317;SDS011;2172;53.576;9.934;2023-07-13T15:25:15;3.83;;;3.30;;
4317;SDS011;2172;53.576;9.934;2023-07-13T15:27:45;3.43;;;3.10;;
4317;SDS011;2172;53.576;9.934;2023-07-13T15:30:12;4.10;;;3.50;;